createdAt,value
2023-05-21T00:01:48.871Z,16.48
2023-05-21T00:06:56.286Z,16.52
2023-05-21T00:12:03.478Z,16.55
2023-05-21T00:17:10.656Z,16.55
2023-05-21T00:22:18.051Z,16.62
2023-05-21T00:27:25.361Z,16.61
2023-05-21T00:32:32.595Z,16.64
2023-05-21T00:37:39.737Z,16.64
2023-05-21T00:42:48.355Z,16.66
2023-05-21T00:47:56.381Z,16.70
2023-05-21T00:53:03.637Z,16.71
2023-05-21T00:58:11.206Z,16.72
2023-05-21T01:03:19.501Z,16.76
2023-05-21T01:08:27.622Z,16.79
2023-05-21T01:13:35.845Z,16.80
2023-05-21T01:18:45.597Z,16.80
2023-05-21T01:23:53.166Z,16.85
2023-05-21T01:29:00.662Z,16.88
2023-05-21T01:34:09.950Z,16.91
2023-05-21T01:39:19.646Z,16.96
2023-05-21T01:44:28.096Z,16.97
2023-05-21T01:49:35.428Z,16.98
2023-05-21T01:54:42.788Z,16.98
2023-05-21T01:59:50.008Z,17.01
2023-05-21T02:04:57.316Z,17.00
2023-05-21T02:10:04.671Z,17.04
2023-05-21T02:15:11.957Z,17.05
2023-05-21T02:20:19.035Z,17.05
2023-05-21T02:25:26.121Z,17.07
2023-05-21T02:30:33.352Z,17.08
2023-05-21T02:35:40.563Z,17.14
2023-05-21T02:40:47.532Z,17.12
2023-05-21T02:45:55.056Z,17.11
2023-05-21T02:51:02.534Z,17.14
2023-05-21T02:56:10.000Z,17.20
2023-05-21T03:01:17.517Z,17.21
2023-05-21T03:06:24.719Z,17.21
2023-05-21T03:11:32.093Z,17.25
2023-05-21T03:16:42.131Z,17.27
2023-05-21T03:21:50.986Z,17.28
2023-05-21T03:26:59.556Z,17.31
2023-05-21T03:32:07.025Z,17.32
2023-05-21T03:37:14.325Z,17.31
2023-05-21T03:42:21.634Z,17.36
2023-05-21T03:47:28.853Z,17.33
2023-05-21T03:52:35.909Z,17.39
2023-05-21T03:57:43.379Z,17.41
2023-05-21T04:02:50.966Z,17.43
2023-05-21T04:07:59.190Z,17.46
2023-05-21T04:13:06.940Z,17.47
2023-05-21T04:18:15.909Z,17.48
2023-05-21T04:23:24.120Z,17.55
2023-05-21T04:28:31.528Z,17.56
2023-05-21T04:33:38.771Z,17.57
2023-05-21T04:38:46.229Z,17.58
2023-05-21T04:43:55.615Z,17.62
2023-05-21T04:49:04.214Z,17.60
2023-05-21T04:54:11.595Z,17.69
2023-05-21T04:59:19.014Z,17.75
2023-05-21T05:04:26.368Z,17.75
2023-05-21T05:09:34.030Z,17.79
2023-05-21T05:14:41.458Z,17.82
2023-05-21T05:19:48.797Z,17.88
2023-05-21T05:24:56.116Z,17.91
2023-05-21T05:30:03.412Z,17.93
2023-05-21T05:35:11.674Z,17.98
2023-05-21T05:40:19.077Z,18.04
2023-05-21T05:45:27.286Z,18.04
2023-05-21T05:50:34.825Z,18.09
2023-05-21T05:55:42.030Z,18.11
2023-05-21T06:00:49.406Z,18.15
2023-05-21T06:05:56.961Z,18.17
2023-05-21T06:11:04.964Z,18.19
2023-05-21T06:16:13.038Z,18.20
2023-05-21T06:21:20.362Z,18.23
2023-05-21T06:26:27.517Z,18.26
2023-05-21T06:31:34.727Z,18.29
2023-05-21T06:36:42.573Z,18.30
2023-05-21T06:41:49.947Z,18.36
2023-05-21T06:46:57.459Z,18.39
2023-05-21T06:52:04.970Z,18.43
2023-05-21T06:57:12.299Z,18.47
2023-05-21T07:02:19.683Z,18.52
2023-05-21T07:07:27.757Z,18.53
2023-05-21T07:12:34.748Z,18.58
2023-05-21T07:17:41.895Z,18.55
2023-05-21T07:22:49.486Z,18.58
2023-05-21T07:27:56.989Z,18.58
2023-05-21T07:33:04.196Z,18.61
2023-05-21T07:38:11.846Z,18.61
2023-05-21T07:43:19.253Z,18.64
2023-05-21T07:48:27.430Z,18.64
2023-05-21T07:53:34.608Z,18.65
2023-05-21T07:58:44.305Z,18.64
2023-05-21T08:03:51.971Z,18.68
2023-05-21T08:09:00.368Z,18.70
2023-05-21T08:14:07.879Z,18.69
2023-05-21T08:19:15.350Z,18.73
2023-05-21T08:24:23.107Z,18.72
2023-05-21T08:29:30.341Z,18.71
2023-05-21T08:34:37.713Z,18.79
2023-05-21T08:39:44.891Z,18.76
2023-05-21T08:44:54.691Z,18.81
2023-05-21T08:50:02.258Z,18.85
2023-05-21T08:55:10.740Z,18.84
2023-05-21T09:00:18.610Z,18.86
2023-05-21T09:05:26.076Z,18.90
2023-05-21T09:10:36.960Z,18.89
2023-05-21T09:15:44.467Z,18.92
2023-05-21T09:20:52.719Z,18.95
2023-05-21T09:26:00.485Z,18.97
2023-05-21T09:31:07.754Z,19.00
2023-05-21T09:36:15.179Z,18.93
2023-05-21T09:41:23.408Z,18.98
2023-05-21T09:46:39.653Z,18.95
2023-05-21T09:51:47.416Z,18.93
2023-05-21T09:56:55.115Z,18.93
2023-05-21T10:02:02.689Z,18.92
2023-05-21T10:07:10.096Z,18.90
2023-05-21T10:12:20.207Z,18.89
2023-05-21T10:17:28.669Z,18.91
2023-05-21T10:22:36.405Z,18.90
2023-05-21T10:27:43.642Z,18.87
2023-05-21T10:32:51.642Z,18.86
2023-05-21T10:37:59.357Z,18.84
2023-05-21T10:43:14.392Z,18.87
2023-05-21T10:48:34.138Z,18.83
2023-05-21T10:53:47.738Z,18.88
2023-05-21T10:59:11.269Z,18.86
2023-05-21T11:04:19.674Z,18.83
2023-05-21T11:09:26.861Z,18.87
2023-05-21T11:14:35.894Z,18.89
2023-05-21T11:19:43.860Z,18.93
2023-05-21T11:24:51.705Z,18.90
2023-05-21T11:29:59.590Z,18.87
2023-05-21T11:35:07.300Z,18.88
2023-05-21T11:40:21.412Z,18.95
2023-05-21T11:45:32.861Z,18.97
2023-05-21T11:50:42.615Z,18.91
2023-05-21T11:55:50.894Z,18.91
2023-05-21T12:00:57.860Z,18.97
2023-05-21T12:06:09.883Z,18.90
2023-05-21T12:11:16.942Z,18.94
2023-05-21T12:16:24.524Z,18.95
2023-05-21T12:21:32.269Z,18.95
2023-05-21T12:26:39.531Z,18.93
2023-05-21T12:31:53.156Z,18.95
2023-05-21T12:37:00.422Z,18.93
2023-05-21T12:42:08.042Z,18.97
2023-05-21T12:47:15.353Z,19.00
2023-05-21T12:52:22.761Z,18.97
2023-05-21T12:57:30.339Z,18.94
2023-05-21T13:02:40.921Z,18.96
2023-05-21T13:07:52.181Z,18.96
2023-05-21T13:13:00.440Z,19.12
2023-05-21T13:18:10.592Z,19.16
2023-05-21T13:23:19.128Z,19.01
2023-05-21T13:28:26.423Z,18.83
2023-05-21T13:33:33.855Z,18.92
2023-05-21T13:38:41.530Z,18.90
2023-05-21T13:43:49.107Z,19.15
2023-05-21T13:48:56.714Z,19.04
2023-05-21T13:54:04.175Z,19.19
2023-05-21T13:59:12.135Z,19.32
2023-05-21T14:04:19.704Z,18.98
2023-05-21T14:09:27.599Z,19.36
2023-05-21T14:14:35.154Z,19.33
2023-05-21T14:19:42.962Z,19.31
2023-05-21T14:24:50.418Z,19.27
2023-05-21T14:29:57.496Z,19.69
2023-05-21T14:35:05.017Z,19.45
2023-05-21T14:40:13.616Z,19.37
2023-05-21T14:45:21.100Z,19.94
2023-05-21T14:50:28.447Z,19.55
2023-05-21T14:55:37.260Z,19.28
2023-05-21T15:00:44.971Z,19.37
2023-05-21T15:05:52.556Z,19.40
2023-05-21T15:10:59.799Z,19.46
2023-05-21T15:16:07.576Z,19.44
2023-05-21T15:21:15.073Z,19.47
2023-05-21T15:26:23.170Z,19.54
2023-05-21T15:31:30.521Z,19.60
2023-05-21T15:36:38.311Z,19.67
2023-05-21T15:41:45.732Z,19.69
2023-05-21T15:46:54.338Z,19.72
2023-05-21T15:52:01.752Z,19.70
2023-05-21T15:57:09.161Z,19.71
2023-05-21T16:02:16.464Z,19.68
2023-05-21T16:07:24.923Z,19.66
2023-05-21T16:12:32.120Z,19.69
2023-05-21T16:17:39.439Z,19.67
2023-05-21T16:22:46.944Z,19.66
2023-05-21T16:27:53.980Z,19.67
2023-05-21T16:33:01.198Z,19.66
2023-05-21T16:38:08.631Z,19.66
2023-05-21T16:43:16.154Z,19.66
2023-05-21T16:48:23.324Z,19.65
2023-05-21T16:53:30.703Z,19.66
2023-05-21T16:58:38.091Z,19.65
2023-05-21T17:03:45.616Z,19.66
2023-05-21T17:08:52.970Z,19.65
2023-05-21T17:14:00.281Z,19.65
2023-05-21T17:19:07.601Z,19.65
2023-05-21T17:24:14.946Z,19.64
2023-05-21T17:29:22.124Z,19.64
2023-05-21T17:34:30.837Z,19.62
2023-05-21T17:39:38.302Z,19.63
2023-05-21T17:44:45.485Z,19.64
2023-05-21T17:49:52.727Z,19.64
2023-05-21T17:55:00.044Z,19.63
2023-05-21T18:00:08.933Z,19.61
2023-05-21T18:05:16.563Z,19.61
2023-05-21T18:10:24.353Z,19.60
2023-05-21T18:15:31.722Z,19.59
2023-05-21T18:20:39.539Z,19.60
2023-05-21T18:25:46.670Z,19.62
2023-05-21T18:30:55.527Z,19.60
2023-05-21T18:36:02.937Z,19.61
2023-05-21T18:41:10.584Z,19.61
2023-05-21T18:46:18.768Z,19.60
2023-05-21T18:51:26.747Z,19.61
2023-05-21T18:56:34.224Z,19.60
2023-05-21T19:01:42.031Z,19.59
2023-05-21T19:06:49.662Z,19.59
2023-05-21T19:11:56.863Z,19.59
2023-05-21T19:17:04.864Z,19.59
2023-05-21T19:22:12.382Z,19.60
2023-05-21T19:27:19.885Z,19.57
2023-05-21T19:32:27.260Z,19.60
2023-05-21T19:37:35.001Z,19.58
2023-05-21T19:42:44.383Z,19.60
2023-05-21T19:47:51.956Z,19.58
2023-05-21T19:52:59.894Z,19.60
2023-05-21T19:58:07.076Z,19.57
2023-05-21T20:03:15.325Z,19.60
2023-05-21T20:08:22.495Z,19.61
2023-05-21T20:13:30.109Z,19.61
2023-05-21T20:18:37.365Z,19.58
2023-05-21T20:23:44.680Z,19.60
2023-05-21T20:28:51.798Z,19.57
2023-05-21T20:33:59.320Z,19.59
2023-05-21T20:39:06.796Z,19.59
2023-05-21T20:44:14.211Z,19.59
2023-05-21T20:49:25.193Z,19.58
2023-05-21T20:54:32.907Z,19.58
2023-05-21T20:59:40.288Z,19.60
2023-05-21T21:04:49.498Z,19.57
2023-05-21T21:09:56.937Z,19.59
2023-05-21T21:15:04.271Z,19.59
2023-05-21T21:20:13.194Z,19.58
2023-05-21T21:25:20.657Z,19.61
2023-05-21T21:30:27.979Z,19.59
2023-05-21T21:35:35.152Z,19.60
2023-05-21T21:40:42.451Z,19.59
2023-05-21T21:45:49.846Z,19.60
2023-05-21T21:50:57.791Z,19.61
2023-05-21T21:56:05.370Z,19.60
2023-05-21T22:01:12.859Z,19.61
2023-05-21T22:06:20.382Z,19.62
2023-05-21T22:11:28.876Z,19.61
2023-05-21T22:16:36.904Z,19.60
2023-05-21T22:21:43.985Z,19.61
2023-05-21T22:26:51.225Z,19.60
2023-05-21T22:31:58.432Z,19.59
2023-05-21T22:37:05.824Z,19.62
2023-05-21T22:42:13.291Z,19.62
2023-05-21T22:47:23.458Z,19.60
2023-05-21T22:52:31.036Z,19.61
2023-05-21T22:57:38.237Z,19.62
2023-05-21T23:02:45.688Z,19.61
2023-05-21T23:07:52.766Z,19.62
2023-05-21T23:12:59.975Z,19.61
2023-05-21T23:18:08.049Z,19.61
2023-05-21T23:23:15.211Z,19.61
2023-05-21T23:28:22.394Z,19.63
2023-05-21T23:33:30.253Z,19.61
2023-05-21T23:38:37.792Z,19.62
2023-05-21T23:43:45.195Z,19.61
2023-05-21T23:48:52.202Z,19.61
2023-05-21T23:53:59.316Z,19.60
2023-05-21T23:59:06.745Z,19.61
